N5SOR-2 Weather Reports


Display with metric or nautical units.
time (UTC)temp
F
wind
direction
speed
MPH
gust
MPH
rain 1hr
in
rain 24hr
in
rain mn
in
humidity
%
barometer
mb
20210307153833 53 359 0.0 0.0 0.00 0.00 0.00 43 1027.3
20210307152823 51 359 0.0 3.0 0.00 0.00 0.00 44 1027.2
20210307151231 51 359 0.0 0.0 0.00 0.00 0.00 43 1027.3
20210307145931 51 359 0.0 4.0 0.00 0.00 0.00 44 1027.2
20210307144630 51 359 0.0 1.0 0.00 0.00 0.00 45 1027.1
20210307143336 50 359 0.0 0.0 0.00 0.00 0.00 47 1027.0
20210307142249 48 359 0.0 1.0 0.00 0.00 0.00 48 1026.6
20210307140727 48 359 0.0 0.0 0.00 0.00 0.00 50 1026.7
20210307135815 46 359 0.0 1.0 0.00 0.00 0.00 52 1026.5
20210307134126 44 359 0.0 1.0 0.00 0.00 0.00 55 1026.5
20210307133102 43 359 0.0 0.0 0.00 0.00 0.00 57 1026.5
20210307131538 43 359 0.0 0.0 0.00 0.00 0.00 56 1026.4
20210307130334 43 359 0.0 1.0 0.00 0.00 0.00 55 1026.3
20210307125220 44 359 0.0 0.0 0.00 0.00 0.00 54 1026.3
20210307123624 44 359 0.0 3.0 0.00 0.00 0.00 52 1026.1
20210307122842 44 359 1.0 5.0 0.00 0.00 0.00 50 1026.1
20210307121026 45 359 5.0 8.0 0.00 0.00 0.00 48 1026.3
20210307115931 44 359 0.0 2.0 0.00 0.00 0.00 46 1026.3
20210307114421 44 359 5.0 6.0 0.00 0.00 0.00 46 1026.2
20210307113230 44 359 4.0 6.0 0.00 0.00 0.00 47 1026.2
20210307112147 43 359 3.0 5.0 0.00 0.00 0.00 49 1026.2
20210307110623 43 359 0.0 4.0 0.00 0.00 0.00 49 1026.2
20210307105939 43 359 0.0 0.0 0.00 0.00 0.00 49 1026.3
20210307103916 43 359 0.0 0.0 0.00 0.00 0.00 47 1026.4
20210307102921 44 359 0.0 0.0 0.00 0.00 0.00 46 1026.5
20210307101326 43 359 0.0 0.0 0.00 0.00 0.00 46 1026.5
20210307100248 43 359 0.0 0.0 0.00 0.00 0.00 45 1026.6
20210307094747 43 359 0.0 0.0 0.00 0.00 0.00 46 1026.8
20210307093412 44 359 0.0 0.0 0.00 0.00 0.00 44 1026.7
20210307092402 43 359 0.0 0.0 0.00 0.00 0.00 44 1026.8
20210307090811 44 359 0.0 0.0 0.00 0.00 0.00 43 1026.9
20210307085843 43 359 0.0 0.0 0.00 0.00 0.00 43 1027.1
20210307084312 43 359 0.0 0.0 0.00 0.00 0.00 43 1027.2
20210307083024 43 359 0.0 1.0 0.00 0.00 0.00 43 1027.2
20210307081635 44 359 0.0 0.0 0.00 0.00 0.00 42 1027.2
20210307080309 44 359 0.0 1.0 0.00 0.00 0.00 41 1027.1
20210307075200 43 359 0.0 1.0 0.00 0.00 0.00 44 1027.2
20210307073706 42 359 0.0 1.0 0.00 0.00 0.00 47 1027.3
20210307072810 43 359 1.0 3.0 0.00 0.00 0.00 47 1027.3
20210307071112 43 359 2.0 9.0 0.00 0.00 0.00 47 1027.3
20210307065842 43 359 7.0 10.0 0.00 0.00 0.00 47 1027.4
20210307064510 42 359 7.0 15.0 0.00 0.00 0.00 51 1027.3
20210307063201 42 359 5.0 9.0 0.00 0.00 0.00 50 1027.4
20210307062022 41 359 4.0 8.0 0.00 0.00 0.00 52 1027.5
20210307060633 42 359 5.0 10.0 0.00 0.00 0.00 51 1027.6
20210307055547 42 359 2.0 6.0 0.00 0.00 0.00 53 1027.5
20210307054001 41 359 9.0 14.0 0.00 0.00 0.00 56 1027.5
20210307052847 41 359 10.0 12.0 0.00 0.00 0.00 59 1027.6
20210307051400 40 359 11.0 16.0 0.00 0.00 0.00 63 1027.6
20210307050100 40 359 7.0 14.0 0.00 0.00 0.00 64 1027.8
20210307044759 39 359 1.0 10.0 0.00 0.00 0.00 65 1028.0
20210307043456 39 359 1.0 4.0 0.00 0.00 0.00 66 1028.2
20210307042452 39 359 0.0 0.0 0.00 0.00 0.00 65 1028.3
20210307040857 39 359 0.0 0.0 0.00 0.00 0.00 65 1028.3
20210307035912 39 359 0.0 0.0 0.00 0.00 0.00 64 1028.0
20210307034252 40 359 0.0 3.0 0.00 0.00 0.00 64 1028.0
20210307033157 40 359 0.0 1.0 0.00 0.00 0.00 63 1028.1
20210307031656 40 359 0.0 4.0 0.00 0.00 0.00 62 1028.2
20210307030350 40 359 0.0 1.0 0.00 0.00 0.00 62 1028.4
20210307025635 40 359 0.0 1.0 0.00 0.00 0.00 62 1028.3
20210307023748 40 359 0.0 2.0 0.00 0.00 0.00 61 1028.2
20210307023030 41 359 0.0 5.0 0.00 0.00 0.00 61 1028.1
20210307021147 41 359 0.0 3.0 0.00 0.00 0.00 60 1027.8
20210307020118 41 359 0.0 4.0 0.00 0.00 0.00 60 1027.8
20210307014547 41 359 0.0 2.0 0.00 0.00 0.00 59 1027.6
20210307013249 42 359 0.0 4.0 0.00 0.00 0.00 58 1027.6
20210307012030 42 359 0.0 2.0 0.00 0.00 0.00 56 1027.6
20210307010643 42 359 0.0 3.0 0.00 0.00 0.00 55 1027.6
20210307005752 43 359 0.0 3.0 0.00 0.00 0.00 53 1027.4
20210307004047 44 359 0.0 0.0 0.00 0.00 0.00 51 1027.5
20210307002855 45 359 0.0 3.0 0.00 0.00 0.00 50 1027.5
20210307001445 46 359 0.0 3.0 0.00 0.00 0.00 48 1027.6
20210307000401 47 359 0.0 2.0 0.00 0.00 0.00 47 1027.7
20210306234848 46 359 0.0 1.0 0.00 0.00 0.00 48 1027.6
20210306233548 48 359 0.0 3.0 0.00 0.00 0.00 44 1027.3
20210306232800 49 359 0.0 2.0 0.00 0.00 0.00 44 1027.3
20210306230937 47 359 0.0 4.0 0.00 0.00 0.00 46 1027.3
20210306225843 48 359 1.0 2.0 0.00 0.00 0.00 46 1027.2
20210306224337 47 93 1.0 9.0 0.00 0.00 0.00 46 1028.0
20210306221759 48 359 1.0 6.0 0.00 0.00 0.00 44 1027.5
20210306220432 48 359 1.0 1.0 0.00 0.00 0.00 45 1027.6
20210306215414 48 359 1.0 8.0 0.00 0.00 0.00 45 1028.0
20210306213831 49 359 0.0 4.0 0.00 0.00 0.00 45 1028.0
20210306212857 48 359 1.0 5.0 0.00 0.00 0.00 45 1028.4
20210306205928 48 359 1.0 8.0 0.00 0.00 0.00 45 1028.7
20210306204633 48 106 1.0 4.0 0.00 0.00 0.00 46 1028.9
20210306203329 47 359 1.0 4.0 0.00 0.00 0.00 46 1029.0
20210306202410 48 359 0.0 6.0 0.00 0.00 0.00 48 1029.2
20210306200731 47 359 1.0 9.0 0.00 0.00 0.00 49 1029.3
20210306195757 48 359 1.0 3.0 0.00 0.00 0.00 49 1029.7
20210306194124 47 359 1.0 5.0 0.00 0.00 0.00 51 1030.0
20210306192827 47 359 1.0 5.0 0.00 0.00 0.00 51 1030.1
20210306191526 46 359 1.0 5.0 0.00 0.00 0.00 52 1030.4
20210306190224 45 359 1.0 10.0 0.00 0.00 0.00 54 1030.8
20210306185215 46 359 1.0 6.0 0.00 0.00 0.00 53 1030.8
20210306183626 44 359 1.0 5.0 0.00 0.00 0.00 57 1030.9
20210306182743 45 359 0.0 0.0 0.00 0.00 0.00 56 1031.2
20210306181031 44 359 1.0 1.0 0.00 0.00 0.00 58 1031.3
20210306175927 43 359 1.0 6.0 0.00 0.00 0.00 58 1031.4
20210306174427 44 359 1.0 5.0 0.00 0.00 0.00 56 1031.4
20210306173118 44 106 1.0 5.0 0.00 0.00 0.00 59 1031.6
20210306172217 43 359 1.0 6.0 0.00 0.00 0.00 58 1031.6
20210306170522 42 359 1.0 4.0 0.00 0.00 0.00 60 1031.8
20210306165852 42 359 0.0 5.0 0.00 0.00 0.00 61 1031.8
20210306163916 41 359 1.0 3.0 0.00 0.00 0.00 62 1031.6
20210306162841 40 359 1.0 4.0 0.00 0.00 0.00 63 1031.7
20210306161325 40 359 2.0 5.0 0.00 0.00 0.00 64 1031.5
20210306160034 40 359 1.0 4.0 0.00 0.00 0.00 67 1031.5